createdAt,value
2019-05-06T00:09:04.851Z,5.58
2019-05-06T00:19:47.408Z,5.48
2019-05-06T00:30:28.652Z,5.36
2019-05-06T00:41:14.342Z,5.18
2019-05-06T00:51:55.028Z,5.06
2019-05-06T01:02:34.281Z,5.03
2019-05-06T01:13:16.866Z,4.94
2019-05-06T01:23:59.436Z,4.87
2019-05-06T01:34:44.671Z,4.79
2019-05-06T01:45:27.901Z,4.71
2019-05-06T01:56:07.789Z,4.69
2019-05-06T02:06:50.782Z,4.59
2019-05-06T02:17:34.547Z,4.51
2019-05-06T02:28:15.835Z,4.41
2019-05-06T02:38:59.528Z,4.16
2019-05-06T02:49:44.227Z,3.95
2019-05-06T03:00:25.664Z,3.82
2019-05-06T03:11:13.547Z,3.83
2019-05-06T03:21:54.645Z,3.83
2019-05-06T03:32:48.447Z,3.86
2019-05-06T03:43:23.304Z,3.83
2019-05-06T03:54:03.360Z,3.91
2019-05-06T04:04:45.509Z,3.98
2019-05-06T04:15:29.962Z,4.05
2019-05-06T04:26:13.352Z,4.20
2019-05-06T04:36:53.410Z,4.42
2019-05-06T04:47:26.440Z,4.52
2019-05-06T04:58:13.143Z,4.72
2019-05-06T05:08:53.614Z,5.05
2019-05-06T05:19:39.921Z,10.50
2019-05-06T05:30:29.442Z,10.87
2019-05-06T05:41:12.003Z,13.06
2019-05-06T05:51:51.999Z,9.09
2019-05-06T06:02:33.102Z,7.58
2019-05-06T06:13:12.641Z,7.23
2019-05-06T06:23:53.732Z,7.83
2019-05-06T06:34:36.630Z,10.21
2019-05-06T06:45:22.915Z,8.70
2019-05-06T06:56:03.886Z,8.08
2019-05-06T07:06:47.036Z,8.28
2019-05-06T07:17:32.660Z,8.18
2019-05-06T07:28:13.608Z,8.55
2019-05-06T07:38:52.711Z,8.83
2019-05-06T07:49:32.977Z,9.07
2019-05-06T08:00:15.995Z,8.87
2019-05-06T08:10:59.879Z,9.23
2019-05-06T08:21:42.801Z,9.02
2019-05-06T08:32:24.697Z,8.94
2019-05-06T08:43:10.034Z,8.86
2019-05-06T08:53:53.765Z,9.05
2019-05-06T09:04:36.762Z,9.12
2019-05-06T09:15:22.053Z,9.35
2019-05-06T09:26:02.925Z,9.67
2019-05-06T09:36:51.965Z,9.99
2019-05-06T09:47:28.085Z,10.06
2019-05-06T09:58:12.367Z,9.85
2019-05-06T10:08:52.886Z,9.92
2019-05-06T10:19:36.017Z,10.09
2019-05-06T10:30:19.131Z,10.02
2019-05-06T10:41:07.398Z,10.86
2019-05-06T10:51:47.688Z,11.21
2019-05-06T11:02:32.255Z,11.18
2019-05-06T11:13:13.178Z,11.45
2019-05-06T11:23:56.123Z,11.42
2019-05-06T11:34:37.937Z,10.99
2019-05-06T11:45:22.866Z,10.90
2019-05-06T11:56:02.151Z,10.56
2019-05-06T12:06:46.906Z,10.38
2019-05-06T12:17:27.030Z,10.13
2019-05-06T12:28:12.251Z,10.21
2019-05-06T12:38:52.486Z,10.36
2019-05-06T12:49:36.247Z,10.52
2019-05-06T13:00:13.993Z,10.57
2019-05-06T13:10:58.063Z,10.59
2019-05-06T13:21:42.263Z,10.52
2019-05-06T13:32:25.050Z,10.35
2019-05-06T13:43:07.837Z,10.24
2019-05-06T13:53:46.042Z,10.24
2019-05-06T14:04:24.131Z,10.31
2019-05-06T14:14:57.911Z,10.49
2019-05-06T14:25:34.013Z,10.60
2019-05-06T14:36:13.983Z,10.90
2019-05-06T14:46:54.193Z,11.16
2019-05-06T14:57:35.197Z,11.49
2019-05-06T15:08:18.577Z,11.58
2019-05-06T15:19:05.053Z,12.39
2019-05-06T15:29:32.176Z,12.08
2019-05-06T15:40:08.963Z,12.36
2019-05-06T15:50:53.254Z,12.35
2019-05-06T16:01:37.219Z,12.38
2019-05-06T16:12:17.878Z,12.20
2019-05-06T16:22:59.051Z,12.04
2019-05-06T16:33:40.487Z,11.62
2019-05-06T16:44:20.722Z,11.23
2019-05-06T16:54:59.908Z,10.85
2019-05-06T17:05:39.921Z,9.89
2019-05-06T17:16:23.335Z,9.52
2019-05-06T17:27:08.883Z,9.25
2019-05-06T17:37:42.913Z,9.02
2019-05-06T17:48:28.053Z,8.92
2019-05-06T17:59:09.111Z,8.88
2019-05-06T18:09:52.925Z,8.80
2019-05-06T18:20:36.012Z,8.74
2019-05-06T18:31:18.338Z,8.66
2019-05-06T18:42:14.296Z,8.57
2019-05-06T18:52:43.177Z,8.62
2019-05-06T19:03:27.273Z,8.61
2019-05-06T19:14:08.340Z,8.52
2019-05-06T19:24:52.046Z,8.52
2019-05-06T19:35:36.823Z,8.42
2019-05-06T19:46:16.045Z,8.40
2019-05-06T19:56:57.172Z,8.38
2019-05-06T20:07:40.295Z,8.25
2019-05-06T20:18:23.365Z,8.22
2019-05-06T20:29:02.198Z,8.18
2019-05-06T20:39:43.304Z,8.14
2019-05-06T20:50:26.847Z,8.14
2019-05-06T21:01:05.466Z,8.11
2019-05-06T21:43:46.081Z,7.98
2019-05-06T21:54:17.362Z,7.92
2019-05-06T22:04:55.465Z,7.84
2019-05-06T22:15:35.451Z,7.73
2019-05-06T22:26:16.028Z,7.68
2019-05-06T22:36:55.264Z,7.55
2019-05-06T22:47:35.287Z,7.57
2019-05-06T22:58:16.121Z,7.50
2019-05-06T23:08:56.509Z,7.46
2019-05-06T23:19:39.256Z,7.43
2019-05-06T23:30:20.578Z,7.35
2019-05-06T23:41:03.186Z,7.34
2019-05-06T23:51:47.707Z,7.19
